sensor_id;sensor_type;location;lat;lon;timestamp;pressure;altitude;pressure_sealevel;temperature;humidity
19600;BME280;9947;57.722;12.012;2022-09-09T00:00:20;101166.72;;;10.46;100.00
19600;BME280;9947;57.722;12.012;2022-09-09T00:02:55;101149.84;;;10.42;100.00
19600;BME280;9947;57.722;12.012;2022-09-09T00:05:32;101164.00;;;10.46;100.00
19600;BME280;9947;57.722;12.012;2022-09-09T00:08:03;101169.41;;;10.46;100.00
19600;BME280;9947;57.722;12.012;2022-09-09T00:10:32;101157.72;;;10.45;100.00
19600;BME280;9947;57.722;12.012;2022-09-09T00:13:11;101159.78;;;10.42;100.00
19600;BME280;9947;57.722;12.012;2022-09-09T00:15:51;101147.31;;;10.39;100.00
19600;BME280;9947;57.722;12.012;2022-09-09T00:18:24;101146.56;;;10.37;100.00
19600;BME280;9947;57.722;12.012;2022-09-09T00:20:58;101146.66;;;10.36;100.00
19600;BME280;9947;57.722;12.012;2022-09-09T00:23:32;101140.41;;;10.35;100.00
19600;BME280;9947;57.722;12.012;2022-09-09T00:26:04;101138.78;;;10.33;100.00
19600;BME280;9947;57.722;12.012;2022-09-09T00:28:37;101139.75;;;10.32;100.00
19600;BME280;9947;57.722;12.012;2022-09-09T00:31:13;101134.34;;;10.32;100.00
19600;BME280;9947;57.722;12.012;2022-09-09T00:33:40;101131.88;;;10.29;100.00
19600;BME280;9947;57.722;12.012;2022-09-09T00:36:12;101137.16;;;10.30;100.00
19600;BME280;9947;57.722;12.012;2022-09-09T00:38:45;101135.75;;;10.25;100.00
19600;BME280;9947;57.722;12.012;2022-09-09T00:41:18;101128.72;;;10.22;100.00
19600;BME280;9947;57.722;12.012;2022-09-09T00:43:55;101130.34;;;10.25;100.00
19600;BME280;9947;57.722;12.012;2022-09-09T00:46:50;101117.72;;;10.25;100.00
19600;BME280;9947;57.722;12.012;2022-09-09T00:49:32;101118.91;;;10.21;100.00
19600;BME280;9947;57.722;12.012;2022-09-09T00:52:12;101116.38;;;10.18;100.00
19600;BME280;9947;57.722;12.012;2022-09-09T00:54:48;101122.66;;;10.18;100.00
19600;BME280;9947;57.722;12.012;2022-09-09T00:57:26;101116.59;;;10.15;100.00
19600;BME280;9947;57.722;12.012;2022-09-09T00:59:59;101104.81;;;10.16;100.00
19600;BME280;9947;57.722;12.012;2022-09-09T01:02:36;101103.16;;;10.13;100.00
19600;BME280;9947;57.722;12.012;2022-09-09T01:05:10;101106.84;;;10.12;100.00
19600;BME280;9947;57.722;12.012;2022-09-09T01:07:40;101097.00;;;10.11;100.00
19600;BME280;9947;57.722;12.012;2022-09-09T01:10:17;101096.34;;;10.08;100.00
19600;BME280;9947;57.722;12.012;2022-09-09T01:12:48;101090.19;;;10.06;100.00
19600;BME280;9947;57.722;12.012;2022-09-09T01:15:20;101096.34;;;10.08;100.00
19600;BME280;9947;57.722;12.012;2022-09-09T01:17:54;101091.38;;;10.02;100.00
19600;BME280;9947;57.722;12.012;2022-09-09T01:20:26;101089.31;;;10.05;100.00
19600;BME280;9947;57.722;12.012;2022-09-09T01:26:19;101077.88;;;10.02;100.00
19600;BME280;9947;57.722;12.012;2022-09-09T01:28:49;101075.50;;;9.97;100.00
19600;BME280;9947;57.722;12.012;2022-09-09T01:31:21;101075.38;;;9.99;100.00
19600;BME280;9947;57.722;12.012;2022-09-09T01:33:49;101075.28;;;10.00;100.00
19600;BME280;9947;57.722;12.012;2022-09-09T01:36:23;101066.31;;;10.00;100.00
19600;BME280;9947;57.722;12.012;2022-09-09T01:38:52;101077.34;;;9.97;100.00
19600;BME280;9947;57.722;12.012;2022-09-09T01:41:21;101072.03;;;9.95;100.00
19600;BME280;9947;57.722;12.012;2022-09-09T01:43:48;101071.28;;;9.93;100.00
19600;BME280;9947;57.722;12.012;2022-09-09T01:46:16;101065.13;;;9.91;100.00
19600;BME280;9947;57.722;12.012;2022-09-09T01:48:43;101063.69;;;9.85;100.00
19600;BME280;9947;57.722;12.012;2022-09-09T01:51:11;101062.91;;;9.83;100.00
19600;BME280;9947;57.722;12.012;2022-09-09T01:53:39;101052.34;;;9.80;100.00
19600;BME280;9947;57.722;12.012;2022-09-09T01:56:18;101054.72;;;9.85;100.00
19600;BME280;9947;57.722;12.012;2022-09-09T01:58:58;101054.16;;;9.80;100.00
19600;BME280;9947;57.722;12.012;2022-09-09T02:01:38;101054.16;;;9.80;100.00
19600;BME280;9947;57.722;12.012;2022-09-09T02:04:17;101042.72;;;9.76;100.00
19600;BME280;9947;57.722;12.012;2022-09-09T02:06:46;101033.53;;;9.79;100.00
19600;BME280;9947;57.722;12.012;2022-09-09T02:09:17;101033.31;;;9.82;100.00
19600;BME280;9947;57.722;12.012;2022-09-09T02:11:47;101038.63;;;9.83;100.00
19600;BME280;9947;57.722;12.012;2022-09-09T02:14:22;101037.88;;;9.81;100.00
19600;BME280;9947;57.722;12.012;2022-09-09T02:16:53;101035.38;;;9.78;100.00
19600;BME280;9947;57.722;12.012;2022-09-09T02:19:25;101032.78;;;9.77;100.00
19600;BME280;9947;57.722;12.012;2022-09-09T02:21:55;101036.25;;;9.79;100.00
19600;BME280;9947;57.722;12.012;2022-09-09T02:24:22;101035.16;;;9.81;100.00
19600;BME280;9947;57.722;12.012;2022-09-09T02:26:52;101027.50;;;9.75;100.00
19600;BME280;9947;57.722;12.012;2022-09-09T02:29:24;101025.88;;;9.73;100.00
19600;BME280;9947;57.722;12.012;2022-09-09T02:31:52;101024.03;;;9.73;100.00
19600;BME280;9947;57.722;12.012;2022-09-09T02:34:23;101032.47;;;9.69;99.67
19600;BME280;9947;57.722;12.012;2022-09-09T02:36:53;101032.47;;;9.69;99.54
19600;BME280;9947;57.722;12.012;2022-09-09T02:39:22;101024.75;;;9.63;99.50
19600;BME280;9947;57.722;12.012;2022-09-09T02:41:48;101024.56;;;9.66;99.25
19600;BME280;9947;57.722;12.012;2022-09-09T02:44:17;101021.88;;;9.66;99.47
19600;BME280;9947;57.722;12.012;2022-09-09T02:46:58;101009.44;;;9.63;98.57
19600;BME280;9947;57.722;12.012;2022-09-09T02:49:39;101011.34;;;9.61;98.47
19600;BME280;9947;57.722;12.012;2022-09-09T02:52:08;101000.66;;;9.59;98.68
19600;BME280;9947;57.722;12.012;2022-09-09T02:54:41;101016.75;;;9.61;98.36
19600;BME280;9947;57.722;12.012;2022-09-09T02:57:11;101008.75;;;9.59;98.02
19600;BME280;9947;57.722;12.012;2022-09-09T02:59:38;101012.44;;;9.58;97.95
19600;BME280;9947;57.722;12.012;2022-09-09T03:02:20;101005.53;;;9.54;97.75
19600;BME280;9947;57.722;12.012;2022-09-09T03:04:47;101006.28;;;9.56;97.57
19600;BME280;9947;57.722;12.012;2022-09-09T03:07:17;101008.97;;;9.56;97.70
19600;BME280;9947;57.722;12.012;2022-09-09T03:09:45;101005.53;;;9.54;97.27
19600;BME280;9947;57.722;12.012;2022-09-09T03:12:12;101000.88;;;9.56;97.21
19600;BME280;9947;57.722;12.012;2022-09-09T03:14:39;100998.50;;;9.52;96.68
19600;BME280;9947;57.722;12.012;2022-09-09T03:17:06;100999.78;;;9.46;96.26
19600;BME280;9947;57.722;12.012;2022-09-09T03:19:35;100995.03;;;9.50;96.21
19600;BME280;9947;57.722;12.012;2022-09-09T03:22:03;100987.72;;;9.52;96.47
19600;BME280;9947;57.722;12.012;2022-09-09T03:24:30;100991.16;;;9.54;96.62
19600;BME280;9947;57.722;12.012;2022-09-09T03:26:57;100989.34;;;9.54;96.47
19600;BME280;9947;57.722;12.012;2022-09-09T03:29:24;100992.13;;;9.53;96.13
19600;BME280;9947;57.722;12.012;2022-09-09T03:31:50;100988.03;;;9.47;95.59
19600;BME280;9947;57.722;12.012;2022-09-09T03:34:17;100991.59;;;9.48;95.35
19600;BME280;9947;57.722;12.012;2022-09-09T03:36:45;100991.91;;;9.43;94.72
19600;BME280;9947;57.722;12.012;2022-09-09T03:39:14;100980.03;;;9.46;94.44
19600;BME280;9947;57.722;12.012;2022-09-09T03:41:40;100978.31;;;9.45;94.34
19600;BME280;9947;57.722;12.012;2022-09-09T03:44:07;100972.81;;;9.46;94.16
19600;BME280;9947;57.722;12.012;2022-09-09T03:46:34;100967.19;;;9.49;94.37
19600;BME280;9947;57.722;12.012;2022-09-09T03:49:01;100962.13;;;9.57;95.16
19600;BME280;9947;57.722;12.012;2022-09-09T03:51:27;100964.50;;;9.62;95.39
19600;BME280;9947;57.722;12.012;2022-09-09T03:53:56;100960.94;;;9.62;95.38
19600;BME280;9947;57.722;12.012;2022-09-09T03:56:23;100954.38;;;9.66;95.73
19600;BME280;9947;57.722;12.012;2022-09-09T03:58:51;100956.00;;;9.68;95.64
19600;BME280;9947;57.722;12.012;2022-09-09T04:01:17;100949.41;;;9.72;96.09
19600;BME280;9947;57.722;12.012;2022-09-09T04:03:44;100955.25;;;9.79;96.66
19600;BME280;9947;57.722;12.012;2022-09-09T04:06:12;100954.28;;;9.80;96.92
19600;BME280;9947;57.722;12.012;2022-09-09T04:08:40;100945.31;;;9.79;96.40
19600;BME280;9947;57.722;12.012;2022-09-09T04:11:09;100945.72;;;9.86;96.96
19600;BME280;9947;57.722;12.012;2022-09-09T04:13:37;100944.97;;;9.84;96.63
19600;BME280;9947;57.722;12.012;2022-09-09T04:16:05;100937.53;;;9.87;97.09
19600;BME280;9947;57.722;12.012;2022-09-09T04:18:32;100942.28;;;9.97;97.30
19600;BME280;9947;57.722;12.012;2022-09-09T04:20:59;100938.50;;;9.99;97.39
19600;BME280;9947;57.722;12.012;2022-09-09T04:23:27;100936.22;;;10.06;98.36
19600;BME280;9947;57.722;12.012;2022-09-09T04:25:56;100933.53;;;10.06;98.35
19600;BME280;9947;57.722;12.012;2022-09-09T04:28:26;100936.13;;;10.07;98.25
19600;BME280;9947;57.722;12.012;2022-09-09T04:30:54;100938.38;;;10.13;98.57
19600;BME280;9947;57.722;12.012;2022-09-09T04:33:23;100937.50;;;10.13;98.80
19600;BME280;9947;57.722;12.012;2022-09-09T04:35:52;100935.47;;;10.16;98.84
19600;BME280;9947;57.722;12.012;2022-09-09T04:38:20;100922.84;;;10.17;98.46
19600;BME280;9947;57.722;12.012;2022-09-09T04:40:50;100922.09;;;10.28;99.58
19600;BME280;9947;57.722;12.012;2022-09-09T04:43:17;100929.31;;;10.27;100.00
19600;BME280;9947;57.722;12.012;2022-09-09T04:45:47;100911.38;;;10.26;99.37
19600;BME280;9947;57.722;12.012;2022-09-09T04:48:15;100916.97;;;10.36;100.00
19600;BME280;9947;57.722;12.012;2022-09-09T04:50:42;100908.88;;;10.36;99.77
19600;BME280;9947;57.722;12.012;2022-09-09T04:53:09;100912.19;;;10.39;100.00
19600;BME280;9947;57.722;12.012;2022-09-09T04:55:38;100910.91;;;10.45;100.00
19600;BME280;9947;57.722;12.012;2022-09-09T04:58:06;100915.34;;;10.46;100.00
19600;BME280;9947;57.722;12.012;2022-09-09T05:00:34;100923.00;;;10.52;100.00
19600;BME280;9947;57.722;12.012;2022-09-09T05:03:05;100912.94;;;10.54;100.00
19600;BME280;9947;57.722;12.012;2022-09-09T05:05:34;100911.50;;;10.61;100.00
19600;BME280;9947;57.722;12.012;2022-09-09T05:08:02;100909.41;;;10.65;100.00
19600;BME280;9947;57.722;12.012;2022-09-09T05:10:30;100906.41;;;10.69;100.00
19600;BME280;9947;57.722;12.012;2022-09-09T05:12:57;100911.56;;;10.72;100.00
19600;BME280;9947;57.722;12.012;2022-09-09T05:15:24;100914.56;;;10.80;100.00
19600;BME280;9947;57.722;12.012;2022-09-09T05:17:50;100901.66;;;10.84;100.00
19600;BME280;9947;57.722;12.012;2022-09-09T05:20:20;100912.88;;;10.91;100.00
19600;BME280;9947;57.722;12.012;2022-09-09T05:22:47;100913.94;;;11.01;100.00
19600;BME280;9947;57.722;12.012;2022-09-09T05:25:14;100906.72;;;11.12;100.00
19600;BME280;9947;57.722;12.012;2022-09-09T05:27:41;100905.56;;;11.04;100.00
19600;BME280;9947;57.722;12.012;2022-09-09T05:30:09;100910.03;;;11.16;100.00
19600;BME280;9947;57.722;12.012;2022-09-09T05:32:36;100910.34;;;11.24;100.00
19600;BME280;9947;57.722;12.012;2022-09-09T05:35:04;100906.19;;;11.31;100.00
19600;BME280;9947;57.722;12.012;2022-09-09T05:37:32;100898.69;;;11.35;100.00
19600;BME280;9947;57.722;12.012;2022-09-09T05:39:58;100900.91;;;11.41;100.00
19600;BME280;9947;57.722;12.012;2022-09-09T05:42:29;100906.31;;;11.41;100.00
19600;BME280;9947;57.722;12.012;2022-09-09T05:44:59;100901.75;;;11.41;100.00
19600;BME280;9947;57.722;12.012;2022-09-09T05:47:29;100900.22;;;11.50;100.00
19600;BME280;9947;57.722;12.012;2022-09-09T05:49:56;100908.81;;;11.55;100.00
19600;BME280;9947;57.722;12.012;2022-09-09T05:52:22;100913.38;;;11.55;100.00
19600;BME280;9947;57.722;12.012;2022-09-09T05:54:52;100911.53;;;11.55;100.00
19600;BME280;9947;57.722;12.012;2022-09-09T05:57:20;100910.06;;;11.62;100.00
19600;BME280;9947;57.722;12.012;2022-09-09T05:59:47;100912.78;;;11.62;100.00
19600;BME280;9947;57.722;12.012;2022-09-09T06:02:14;100912.78;;;11.62;100.00
19600;BME280;9947;57.722;12.012;2022-09-09T06:04:41;100918.31;;;11.61;100.00
19600;BME280;9947;57.722;12.012;2022-09-09T06:07:08;100916.09;;;11.66;100.00
19600;BME280;9947;57.722;12.012;2022-09-09T06:09:35;100912.41;;;11.67;100.00
19600;BME280;9947;57.722;12.012;2022-09-09T06:12:04;100908.72;;;11.68;100.00
19600;BME280;9947;57.722;12.012;2022-09-09T06:14:30;100916.84;;;11.68;100.00
19600;BME280;9947;57.722;12.012;2022-09-09T06:16:57;100918.44;;;11.70;100.00
19600;BME280;9947;57.722;12.012;2022-09-09T06:19:24;100920.34;;;11.81;100.00
19600;BME280;9947;57.722;12.012;2022-09-09T06:21:54;100918.00;;;11.88;100.00
19600;BME280;9947;57.722;12.012;2022-09-09T06:24:20;100916.03;;;11.90;100.00
19600;BME280;9947;57.722;12.012;2022-09-09T06:26:47;100920.88;;;11.97;100.00
19600;BME280;9947;57.722;12.012;2022-09-09T06:29:15;100911.84;;;11.97;100.00
19600;BME280;9947;57.722;12.012;2022-09-09T06:31:42;100923.56;;;12.09;100.00
19600;BME280;9947;57.722;12.012;2022-09-09T06:34:09;100919.63;;;12.13;100.00
19600;BME280;9947;57.722;12.012;2022-09-09T06:36:37;100922.56;;;12.21;100.00
19600;BME280;9947;57.722;12.012;2022-09-09T06:39:05;100921.09;;;12.17;100.00
19600;BME280;9947;57.722;12.012;2022-09-09T06:41:34;100916.56;;;12.28;100.00
19600;BME280;9947;57.722;12.012;2022-09-09T06:44:01;100912.84;;;12.41;100.00
19600;BME280;9947;57.722;12.012;2022-09-09T06:46:31;100902.59;;;12.44;100.00
19600;BME280;9947;57.722;12.012;2022-09-09T06:48:59;100909.63;;;12.47;100.00
19600;BME280;9947;57.722;12.012;2022-09-09T06:51:26;100904.06;;;12.59;100.00
19600;BME280;9947;57.722;12.012;2022-09-09T06:53:55;100904.94;;;12.60;100.00
19600;BME280;9947;57.722;12.012;2022-09-09T06:56:24;100902.22;;;12.60;100.00
19600;BME280;9947;57.722;12.012;2022-09-09T06:58:54;100905.16;;;12.68;100.00
19600;BME280;9947;57.722;12.012;2022-09-09T07:01:23;100894.53;;;12.76;100.00
19600;BME280;9947;57.722;12.012;2022-09-09T07:03:53;100904.16;;;12.80;100.00
19600;BME280;9947;57.722;12.012;2022-09-09T07:06:21;100893.91;;;12.84;100.00
19600;BME280;9947;57.722;12.012;2022-09-09T07:08:50;100896.47;;;12.85;100.00
19600;BME280;9947;57.722;12.012;2022-09-09T07:11:20;100899.53;;;12.92;100.00
19600;BME280;9947;57.722;12.012;2022-09-09T07:13:47;100901.38;;;12.91;100.00
19600;BME280;9947;57.722;12.012;2022-09-09T07:16:16;100897.53;;;12.94;100.00
19600;BME280;9947;57.722;12.012;2022-09-09T07:18:44;100897.88;;;13.01;100.00
19600;BME280;9947;57.722;12.012;2022-09-09T07:21:13;100903.44;;;12.99;100.00
19600;BME280;9947;57.722;12.012;2022-09-09T07:23:41;100897.53;;;13.05;100.00
19600;BME280;9947;57.722;12.012;2022-09-09T07:26:09;100906.59;;;13.15;100.00
19600;BME280;9947;57.722;12.012;2022-09-09T07:28:37;100899.22;;;13.17;100.00
19600;BME280;9947;57.722;12.012;2022-09-09T07:31:05;100895.84;;;13.25;100.00
19600;BME280;9947;57.722;12.012;2022-09-09T07:33:34;100897.47;;;13.27;100.00
19600;BME280;9947;57.722;12.012;2022-09-09T07:36:06;100890.91;;;13.30;100.00
19600;BME280;9947;57.722;12.012;2022-09-09T07:38:39;100896.19;;;13.32;100.00
19600;BME280;9947;57.722;12.012;2022-09-09T07:41:08;100903.47;;;13.31;100.00
19600;BME280;9947;57.722;12.012;2022-09-09T07:43:37;100889.50;;;13.36;100.00
19600;BME280;9947;57.722;12.012;2022-09-09T07:46:05;100893.53;;;13.41;100.00
19600;BME280;9947;57.722;12.012;2022-09-09T07:48:32;100891.81;;;13.40;100.00
19600;BME280;9947;57.722;12.012;2022-09-09T07:51:07;100898.13;;;13.41;100.00
19600;BME280;9947;57.722;12.012;2022-09-09T07:53:35;100891.22;;;13.37;100.00
19600;BME280;9947;57.722;12.012;2022-09-09T07:56:06;100885.41;;;13.41;100.00
19600;BME280;9947;57.722;12.012;2022-09-09T07:58:35;100894.22;;;13.34;100.00
19600;BME280;9947;57.722;12.012;2022-09-09T08:01:06;100890.16;;;13.49;100.00
19600;BME280;9947;57.722;12.012;2022-09-09T08:03:33;100891.59;;;13.53;100.00
19600;BME280;9947;57.722;12.012;2022-09-09T08:06:01;100891.88;;;13.71;100.00
19600;BME280;9947;57.722;12.012;2022-09-09T08:08:28;100893.00;;;13.89;100.00
19600;BME280;9947;57.722;12.012;2022-09-09T08:11:01;100891.22;;;14.09;100.00
19600;BME280;9947;57.722;12.012;2022-09-09T08:13:30;100893.44;;;14.25;100.00
19600;BME280;9947;57.722;12.012;2022-09-09T08:16:04;100898.69;;;14.16;100.00
19600;BME280;9947;57.722;12.012;2022-09-09T08:18:32;100889.69;;;14.16;100.00
19600;BME280;9947;57.722;12.012;2022-09-09T08:21:05;100902.00;;;14.20;100.00
19600;BME280;9947;57.722;12.012;2022-09-09T08:23:32;100886.91;;;14.37;100.00
19600;BME280;9947;57.722;12.012;2022-09-09T08:26:03;100899.19;;;14.31;100.00
19600;BME280;9947;57.722;12.012;2022-09-09T08:28:32;100887.47;;;14.40;100.00
19600;BME280;9947;57.722;12.012;2022-09-09T08:31:10;100895.50;;;14.42;100.00
19600;BME280;9947;57.722;12.012;2022-09-09T08:33:37;100900.41;;;14.48;100.00
19600;BME280;9947;57.722;12.012;2022-09-09T08:36:05;100901.00;;;14.52;100.00
19600;BME280;9947;57.722;12.012;2022-09-09T08:38:32;100899.84;;;14.54;100.00
19600;BME280;9947;57.722;12.012;2022-09-09T08:41:12;100888.81;;;14.56;100.00
19600;BME280;9947;57.722;12.012;2022-09-09T08:43:46;100889.81;;;14.55;100.00
19600;BME280;9947;57.722;12.012;2022-09-09T08:46:19;100903.34;;;14.66;100.00
19600;BME280;9947;57.722;12.012;2022-09-09T08:48:53;100907.16;;;14.54;100.00
19600;BME280;9947;57.722;12.012;2022-09-09T08:51:26;100899.03;;;14.73;100.00
19600;BME280;9947;57.722;12.012;2022-09-09T08:53:56;100894.13;;;14.57;100.00
19600;BME280;9947;57.722;12.012;2022-09-09T08:56:26;100889.81;;;14.55;100.00
19600;BME280;9947;57.722;12.012;2022-09-09T08:58:56;100891.53;;;14.56;100.00
19600;BME280;9947;57.722;12.012;2022-09-09T09:01:34;100893.25;;;14.57;100.00
19600;BME280;9947;57.722;12.012;2022-09-09T09:04:14;100891.31;;;14.68;100.00
19600;BME280;9947;57.722;12.012;2022-09-09T09:06:52;100885.00;;;14.77;100.00
19600;BME280;9947;57.722;12.012;2022-09-09T09:09:27;100897.03;;;14.75;100.00
19600;BME280;9947;57.722;12.012;2022-09-09T09:12:00;100907.63;;;14.78;100.00
19600;BME280;9947;57.722;12.012;2022-09-09T09:14:30;100906.78;;;14.77;100.00
19600;BME280;9947;57.722;12.012;2022-09-09T09:17:02;100901.63;;;14.74;100.00
19600;BME280;9947;57.722;12.012;2022-09-09T09:19:31;100892.34;;;14.96;100.00
19600;BME280;9947;57.722;12.012;2022-09-09T09:22:03;100889.63;;;14.96;100.00
19600;BME280;9947;57.722;12.012;2022-09-09T09:24:41;100894.50;;;15.02;100.00
19600;BME280;9947;57.722;12.012;2022-09-09T09:27:13;100898.66;;;15.16;100.00
19600;BME280;9947;57.722;12.012;2022-09-09T09:29:44;100896.78;;;15.07;100.00
19600;BME280;9947;57.722;12.012;2022-09-09T09:32:16;100891.19;;;14.99;100.00
19600;BME280;9947;57.722;12.012;2022-09-09T09:34:49;100896.38;;;15.11;100.00
19600;BME280;9947;57.722;12.012;2022-09-09T09:37:19;100893.38;;;15.15;100.00
19600;BME280;9947;57.722;12.012;2022-09-09T09:40:06;100892.03;;;15.09;100.00
19600;BME280;9947;57.722;12.012;2022-09-09T09:42:34;100884.19;;;15.25;100.00
19600;BME280;9947;57.722;12.012;2022-09-09T09:45:15;100881.44;;;15.25;100.00
19600;BME280;9947;57.722;12.012;2022-09-09T09:47:43;100893.06;;;15.27;100.00
19600;BME280;9947;57.722;12.012;2022-09-09T09:50:17;100877.44;;;15.39;100.00
19600;BME280;9947;57.722;12.012;2022-09-09T09:52:53;100878.88;;;15.43;100.00
19600;BME280;9947;57.722;12.012;2022-09-09T09:55:23;100877.84;;;15.44;100.00
19600;BME280;9947;57.722;12.012;2022-09-09T09:57:51;100888.75;;;15.44;100.00
19600;BME280;9947;57.722;12.012;2022-09-09T10:00:22;100887.47;;;15.38;100.00
19600;BME280;9947;57.722;12.012;2022-09-09T10:02:50;100889.19;;;15.30;100.00
19600;BME280;9947;57.722;12.012;2022-09-09T10:05:19;100887.06;;;15.14;100.00
19600;BME280;9947;57.722;12.012;2022-09-09T10:07:47;100893.06;;;15.08;100.00
19600;BME280;9947;57.722;12.012;2022-09-09T10:10:34;100892.94;;;15.09;100.00
19600;BME280;9947;57.722;12.012;2022-09-09T10:13:06;100893.94;;;15.18;100.00
19600;BME280;9947;57.722;12.012;2022-09-09T10:15:48;100890.63;;;15.15;100.00
19600;BME280;9947;57.722;12.012;2022-09-09T10:18:30;100893.06;;;15.08;100.00
19600;BME280;9947;57.722;12.012;2022-09-09T10:21:13;100891.63;;;14.94;100.00
19600;BME280;9947;57.722;12.012;2022-09-09T10:23:58;100886.44;;;14.72;100.00
19600;BME280;9947;57.722;12.012;2022-09-09T10:26:38;100895.44;;;14.63;100.00
19600;BME280;9947;57.722;12.012;2022-09-09T10:29:17;100902.28;;;14.47;100.00
19600;BME280;9947;57.722;12.012;2022-09-09T10:31:57;100894.00;;;14.28;100.00
19600;BME280;9947;57.722;12.012;2022-09-09T10:34:51;100889.91;;;14.03;96.28
19600;BME280;9947;57.722;12.012;2022-09-09T10:37:32;100894.16;;;13.96;95.80
19600;BME280;9947;57.722;12.012;2022-09-09T10:40:20;100896.63;;;13.78;92.96
19600;BME280;9947;57.722;12.012;2022-09-09T10:42:50;100899.16;;;13.70;88.39
19600;BME280;9947;57.722;12.012;2022-09-09T10:45:18;100904.88;;;13.67;88.20
19600;BME280;9947;57.722;12.012;2022-09-09T10:48:05;100901.84;;;13.61;85.73
19600;BME280;9947;57.722;12.012;2022-09-09T10:50:49;100903.97;;;13.57;83.41
19600;BME280;9947;57.722;12.012;2022-09-09T10:53:25;100908.81;;;13.53;79.88
19600;BME280;9947;57.722;12.012;2022-09-09T10:55:59;100905.59;;;13.48;77.60
19600;BME280;9947;57.722;12.012;2022-09-09T10:58:30;100910.44;;;13.45;79.32
19600;BME280;9947;57.722;12.012;2022-09-09T11:01:08;100916.13;;;13.42;78.47
19600;BME280;9947;57.722;12.012;2022-09-09T11:03:38;100910.97;;;13.39;78.40
19600;BME280;9947;57.722;12.012;2022-09-09T11:06:15;100915.81;;;13.35;76.98
19600;BME280;9947;57.722;12.012;2022-09-09T11:08:43;100914.06;;;13.34;74.91
19600;BME280;9947;57.722;12.012;2022-09-09T11:11:17;100911.13;;;13.26;76.32
19600;BME280;9947;57.722;12.012;2022-09-09T11:13:49;100922.13;;;13.24;74.61
19600;BME280;9947;57.722;12.012;2022-09-09T11:16:25;100924.25;;;13.21;73.67
19600;BME280;9947;57.722;12.012;2022-09-09T11:18:59;100921.41;;;13.22;72.71
19600;BME280;9947;57.722;12.012;2022-09-09T11:21:30;100929.06;;;13.17;73.18
19600;BME280;9947;57.722;12.012;2022-09-09T11:23:59;100929.41;;;13.24;71.53
19600;BME280;9947;57.722;12.012;2022-09-09T11:26:31;100923.97;;;13.24;71.64
19600;BME280;9947;57.722;12.012;2022-09-09T11:29:24;100927.09;;;13.19;71.24
19600;BME280;9947;57.722;12.012;2022-09-09T11:32:03;100925.09;;;13.21;71.26
19600;BME280;9947;57.722;12.012;2022-09-09T11:34:42;100924.25;;;13.21;71.09
19600;BME280;9947;57.722;12.012;2022-09-09T11:40:14;100928.81;;;13.20;70.85
19600;BME280;9947;57.722;12.012;2022-09-09T11:42:42;100931.13;;;13.25;70.93
19600;BME280;9947;57.722;12.012;2022-09-09T11:45:15;100925.09;;;13.21;70.49
19600;BME280;9947;57.722;12.012;2022-09-09T11:47:51;100928.69;;;13.22;69.80
19600;BME280;9947;57.722;12.012;2022-09-09T11:50:33;100931.66;;;13.19;70.32
19600;BME280;9947;57.722;12.012;2022-09-09T11:53:14;100932.53;;;13.19;69.46
19600;BME280;9947;57.722;12.012;2022-09-09T11:55:42;100933.00;;;13.13;69.38
19600;BME280;9947;57.722;12.012;2022-09-09T11:58:16;100928.53;;;13.23;69.10
19600;BME280;9947;57.722;12.012;2022-09-09T12:00:45;100928.81;;;13.20;68.86
19600;BME280;9947;57.722;12.012;2022-09-09T12:03:34;100926.38;;;13.17;69.28
19600;BME280;9947;57.722;12.012;2022-09-09T12:06:12;100932.38;;;13.21;68.94
19600;BME280;9947;57.722;12.012;2022-09-09T12:08:43;100929.94;;;13.18;68.81
19600;BME280;9947;57.722;12.012;2022-09-09T12:11:11;100921.88;;;13.16;68.69
19600;BME280;9947;57.722;12.012;2022-09-09T12:13:38;100924.13;;;13.11;68.60
19600;BME280;9947;57.722;12.012;2022-09-09T12:16:28;100925.59;;;13.15;68.26
19600;BME280;9947;57.722;12.012;2022-09-09T12:19:03;100919.41;;;13.24;68.11
19600;BME280;9947;57.722;12.012;2022-09-09T12:21:35;100915.25;;;13.20;68.13
19600;BME280;9947;57.722;12.012;2022-09-09T12:24:07;100919.94;;;13.18;68.22
19600;BME280;9947;57.722;12.012;2022-09-09T12:26:38;100917.22;;;13.18;68.06
19600;BME280;9947;57.722;12.012;2022-09-09T12:29:18;100919.44;;;13.13;68.11
19600;BME280;9947;57.722;12.012;2022-09-09T12:31:55;100913.88;;;13.15;68.09
19600;BME280;9947;57.722;12.012;2022-09-09T12:34:38;100913.53;;;13.19;68.17
19600;BME280;9947;57.722;12.012;2022-09-09T12:37:26;100911.78;;;13.18;68.34
19600;BME280;9947;57.722;12.012;2022-09-09T12:39:55;100916.38;;;13.18;68.56
19600;BME280;9947;57.722;12.012;2022-09-09T12:42:24;100923.66;;;13.17;68.71
19600;BME280;9947;57.722;12.012;2022-09-09T12:44:56;100921.66;;;13.19;68.71
19600;BME280;9947;57.722;12.012;2022-09-09T12:47:27;100914.25;;;13.21;68.39
19600;BME280;9947;57.722;12.012;2022-09-09T12:49:57;100917.81;;;13.22;68.74
19600;BME280;9947;57.722;12.012;2022-09-09T12:52:28;100908.22;;;13.18;69.01
19600;BME280;9947;57.722;12.012;2022-09-09T12:54:58;100906.81;;;13.23;68.34
19600;BME280;9947;57.722;12.012;2022-09-09T12:57:31;100907.09;;;13.20;68.32
19600;BME280;9947;57.722;12.012;2022-09-09T13:00:13;100915.97;;;13.22;67.98
19600;BME280;9947;57.722;12.012;2022-09-09T13:02:50;100900.28;;;13.26;67.81
19600;BME280;9947;57.722;12.012;2022-09-09T13:05:20;100905.34;;;13.31;67.87
19600;BME280;9947;57.722;12.012;2022-09-09T13:07:48;100909.28;;;13.26;68.26
19600;BME280;9947;57.722;12.012;2022-09-09T13:10:23;100903.63;;;13.30;68.69
19600;BME280;9947;57.722;12.012;2022-09-09T13:12:52;100900.91;;;13.30;68.10